»·PEaware :: N231DG KSNA-KVNY

N231DG :: KSNA-KVNY

FLIGHT INFORMATION

Flight Status: Arrived
Operator: Privately registered:
United States
More flights under this callsign
Pilot: Chip D. (15091)
Aircraft: CESSNA 172 SKYHAWK
(C172)
More flights by this aircraft type
Origin: KSNA John Wayne-Orange Co
United States
Destination: KVNY Van Nuys
United States
More flights between these airports :: More routes between these airports
Route: +SLI V23 POPPR SMO125 SMO SMO317 CANOG
File this flight plan on PilotEdge
Remarks:
Altitude:
(Current/Filed)
4,000ft
Speed:
(Current/Filed)
115kts
Departed: 06-Jan-18 10:39 AM
Arrived: 06-Jan-18 11:35 AM
Distance/Time
Traveled:
44nm/0:56
Distance/Time
To Go:
Arrived

Flight Plot

Page will automatically refresh every two minutes.


Map Options




Map Legend


Flown Route
Filed Route
Departure Airport
Arrival Airport
Navaid (VOR, NDB)
Fix

Horizontal Profiles

Position Reports

Time Latitude Longitude Heading Altitude Ground
Speed
06-Jan-18 10:16 33.667068 -117.871888 220 60ft 0kts
06-Jan-18 10:17 33.667068 -117.871888 220 60ft 0kts
06-Jan-18 10:18 33.667068 -117.871888 220 60ft 0kts
06-Jan-18 10:19 33.667068 -117.871888 220 60ft 0kts
06-Jan-18 10:20 33.667068 -117.871888 220 60ft 0kts
06-Jan-18 10:21 33.667068 -117.871888 220 60ft 0kts
06-Jan-18 10:22 33.667068 -117.871888 220 60ft 0kts
06-Jan-18 10:23 33.667068 -117.871888 220 60ft 0kts
06-Jan-18 10:24 33.667068 -117.871888 220 60ft 0kts
06-Jan-18 10:25 33.667068 -117.871888 220 60ft 0kts
06-Jan-18 10:26 33.667068 -117.871888 220 60ft 0kts
06-Jan-18 10:27 33.667068 -117.871888 220 60ft 0kts
06-Jan-18 10:28 33.667068 -117.871888 220 60ft 0kts
06-Jan-18 10:29 33.667068 -117.871888 220 60ft 0kts
06-Jan-18 10:30 33.667068 -117.871888 220 60ft 0kts
06-Jan-18 10:31 33.667068 -117.871888 220 60ft 0kts
06-Jan-18 10:32 33.667068 -117.871888 220 60ft 0kts
06-Jan-18 10:33 33.667068 -117.871888 220 60ft 0kts
06-Jan-18 10:34 33.667068 -117.871888 220 60ft 0kts
06-Jan-18 10:35 33.667068 -117.871888 220 60ft 0kts
06-Jan-18 10:36 33.667068 -117.871889 220 60ft 0kts
06-Jan-18 10:37 33.669084 -117.871002 40 60ft 12kts
06-Jan-18 10:38 33.672510 -117.867851 29 60ft 18kts
06-Jan-18 10:39 33.675947 -117.865927 27 60ft 13kts
06-Jan-18 10:40 33.679388 -117.863738 28 60ft 14kts
06-Jan-18 10:41 33.679958 -117.863627 303 60ft 0kts
06-Jan-18 10:42 33.679958 -117.863627 303 60ft 0kts
06-Jan-18 10:43 33.679958 -117.863627 303 60ft 0kts
06-Jan-18 10:44 33.679959 -117.863629 303 60ft 0kts
06-Jan-18 10:45 33.673907 -117.868290 207 179ft 85kts
06-Jan-18 10:46 33.648259 -117.897317 226 778ft 120kts
06-Jan-18 10:47 33.630656 -117.921146 226 1444ft 108kts
06-Jan-18 10:48 33.608278 -117.951471 226 2487ft 102kts
06-Jan-18 10:49 33.591381 -117.977811 256 3373ft 102kts
06-Jan-18 10:50 33.605242 -117.998782 324 3989ft 111kts
06-Jan-18 10:51 33.632343 -118.026848 316 4000ft 134kts
06-Jan-18 10:52 33.658188 -118.057982 314 4000ft 131kts
06-Jan-18 10:53 33.687697 -118.095100 316 3992ft 130kts
06-Jan-18 10:54 33.707439 -118.120128 316 3967ft 119kts
06-Jan-18 10:55 33.729907 -118.148700 316 3942ft 117kts
06-Jan-18 10:56 33.751993 -118.176847 315 3918ft 115kts
06-Jan-18 10:57 33.773783 -118.204641 315 3900ft 113kts
06-Jan-18 10:58 33.795071 -118.232544 315 3894ft 112kts
06-Jan-18 10:59 33.816961 -118.259275 315 3897ft 112kts
06-Jan-18 11:00 33.838839 -118.285851 315 3905ft 112kts
06-Jan-18 11:01 33.862528 -118.310212 320 3905ft 112kts
06-Jan-18 11:02 33.886057 -118.333861 320 3931ft 112kts
06-Jan-18 11:03 33.909720 -118.357680 320 3962ft 112kts
06-Jan-18 11:04 33.933274 -118.381348 320 3980ft 114kts
06-Jan-18 11:05 33.957047 -118.405291 320 3979ft 114kts
06-Jan-18 11:06 33.981213 -118.429670 320 3979ft 114kts
06-Jan-18 11:07 34.005500 -118.454204 320 3978ft 114kts
06-Jan-18 11:08 34.032887 -118.473249 332 3978ft 113kts
06-Jan-18 11:09 34.060706 -118.491183 332 3978ft 113kts
06-Jan-18 11:10 34.088461 -118.509094 332 3989ft 113kts
06-Jan-18 11:11 34.112283 -118.532566 304 3991ft 113kts
06-Jan-18 11:12 34.132735 -118.558522 343 4122ft 104kts
06-Jan-18 11:13 34.159374 -118.565554 343 4876ft 94kts
06-Jan-18 11:14 34.189443 -118.572688 344 4998ft 121kts
06-Jan-18 11:15 34.222630 -118.580394 344 4998ft 122kts
06-Jan-18 11:16 34.256535 -118.588297 344 4998ft 125kts
06-Jan-18 11:17 34.290612 -118.596344 344 4998ft 125kts
06-Jan-18 11:18 34.324645 -118.604460 344 4998ft 125kts
06-Jan-18 11:19 34.358702 -118.612647 344 4998ft 125kts
06-Jan-18 11:20 34.392556 -118.620819 344 4997ft 118kts
06-Jan-18 11:21 34.422706 -118.627756 343 4998ft 106kts
06-Jan-18 11:22 34.451638 -118.634341 343 4998ft 105kts
06-Jan-18 11:23 34.480380 -118.640923 343 4998ft 105kts
06-Jan-18 11:24 34.509044 -118.647541 343 4998ft 105kts
06-Jan-18 11:25 34.523054 -118.620953 92 4998ft 112kts
06-Jan-18 11:26 34.518328 -118.585635 133 4997ft 103kts
06-Jan-18 11:27 34.501456 -118.557571 133 4998ft 102kts
06-Jan-18 11:28 34.484785 -118.529592 136 4998ft 101kts
06-Jan-18 11:29 34.465456 -118.513259 170 5141ft 86kts
06-Jan-18 11:30 34.440619 -118.509428 180 5112ft 91kts
06-Jan-18 11:31 34.413254 -118.507050 179 4543ft 104kts
06-Jan-18 11:32 34.384234 -118.504592 178 3847ft 105kts
06-Jan-18 11:33 34.359668 -118.502439 178 3799ft 81kts
06-Jan-18 11:34 34.336323 -118.500456 178 3799ft 84kts
06-Jan-18 11:35 34.310659 -118.499891 178 3219ft 87kts
06-Jan-18 11:36 34.288834 -118.497889 176 2683ft 77kts
06-Jan-18 11:37 34.267240 -118.495849 176 2145ft 79kts
06-Jan-18 11:38 34.248099 -118.493958 176 1667ft 67kts
06-Jan-18 11:39 34.229002 -118.492180 175 1190ft 70kts
06-Jan-18 11:40 34.210608 -118.490529 175 779ft 45kts
06-Jan-18 11:41 34.206569 -118.490971 261 771ft 0kts
06-Jan-18 11:42 34.206869 -118.491490 215 772ft 10kts

Navigation Log

Ident Type
Flight plan parsing failed, navigation log unavailable